Time;durP1;ratioP1;P1;durP2;ratioP2;P2;SDS_P1;SDS_P2;PMS_P1;PMS_P2;Temp;Humidity;BMP_temperature;BMP_pressure;BME280_temperature;BME280_humidity;BME280_pressure;Samples;Min_cycle;Max_cycle;Signal;HPM_P1;HPM_P2
2022/07/01 00:02:24;;;;;;;6.97;6.32;;;;;;;14.99;86.78;100105.06;10158493;29;20426;-77
2022/07/01 00:07:27;;;;;;;8.55;5.97;;;;;;;14.69;86.41;100132.56;10155597;29;20106;-78
2022/07/01 00:12:30;;;;;;;8.40;5.90;;;;;;;15.04;86.42;100105.44;10119139;29;20060;-78
2022/07/01 00:17:35;;;;;;;6.35;4.95;;;;;;;14.90;85.78;100122.25;10142537;29;20060;-78
2022/07/01 00:22:38;;;;;;;4.68;3.97;;;;;;;14.96;84.59;100147.81;10143072;29;20055;-76
2022/07/01 00:27:41;;;;;;;5.93;3.45;;;;;;;14.80;84.49;100160.19;10134134;29;20135;-78
2022/07/01 00:32:46;;;;;;;5.10;4.20;;;;;;;14.58;85.13;100160.69;10142963;29;20052;-76
2022/07/01 00:37:49;;;;;;;7.82;3.63;;;;;;;14.02;86.63;100159.13;10122066;29;20163;-78
2022/07/01 00:42:52;;;;;;;4.93;4.43;;;;;;;15.14;83.57;100167.56;10125386;29;20514;-77
2022/07/01 00:47:57;;;;;;;6.45;4.63;;;;;;;14.91;83.22;100172.63;10121263;29;20052;-78
2022/07/01 00:53:00;;;;;;;5.78;3.60;;;;;;;14.79;82.70;100163.91;10143457;29;20054;-78
2022/07/01 00:58:03;;;;;;;5.65;4.18;;;;;;;14.68;82.23;100169.59;10141851;29;20107;-77
2022/07/01 01:03:10;;;;;;;5.03;4.10;;;;;;;14.77;82.51;100184.00;10122708;29;20056;-79
2022/07/01 01:08:13;;;;;;;4.82;3.92;;;;;;;14.43;81.82;100187.44;10139065;29;21310;-77
2022/07/01 01:13:16;;;;;;;7.97;3.83;;;;;;;14.21;82.60;100183.31;10130527;29;20056;-78
2022/07/01 01:18:21;;;;;;;3.58;3.03;;;;;;;14.08;82.23;100167.44;10143699;29;20060;-77
2022/07/01 01:23:25;;;;;;;6.40;3.00;;;;;;;14.02;80.90;100196.94;10141597;29;20056;-78
2022/07/01 01:28:28;;;;;;;5.35;3.55;;;;;;;14.50;79.63;100215.53;10140607;29;20519;-78
2022/07/01 01:33:31;;;;;;;3.88;2.97;;;;;;;14.15;80.83;100214.47;10141007;29;20060;-78
2022/07/01 01:38:36;;;;;;;5.85;3.33;;;;;;;14.44;78.98;100208.03;10141512;29;20052;-77
2022/07/01 01:43:39;;;;;;;4.28;2.72;;;;;;;14.08;79.08;100205.25;10142799;29;20048;-78
2022/07/01 01:48:41;;;;;;;6.05;3.10;;;;;;;13.61;79.98;100205.38;10136630;29;20062;-78
2022/07/01 01:53:46;;;;;;;6.75;3.20;;;;;;;13.70;80.02;100199.06;10139571;29;20686;-77
2022/07/01 01:58:49;;;;;;;5.72;3.20;;;;;;;14.45;77.13;100212.44;10140267;29;20052;-78
2022/07/01 02:03:54;;;;;;;4.55;3.72;;;;;;;14.45;77.86;100219.69;10142726;29;20691;-77
2022/07/01 02:08:58;;;;;;;9.18;3.10;;;;;;;14.50;77.00;100214.69;10127125;29;20417;-77
2022/07/01 02:14:01;;;;;;;8.38;4.32;;;;;;;14.43;76.67;100222.56;10136160;29;20195;-78
2022/07/01 02:19:04;;;;;;;7.22;3.90;;;;;;;14.25;77.13;100233.31;10139380;29;20055;-79
2022/07/01 02:24:09;;;;;;;4.85;3.22;;;;;;;14.10;77.27;100256.44;10121191;29;20082;-76
2022/07/01 02:29:11;;;;;;;5.28;4.32;;;;;;;14.08;77.22;100270.09;10135770;29;20060;-78
2022/07/01 02:34:14;;;;;;;5.35;4.18;;;;;;;14.04;77.86;100273.22;10136888;29;20517;-78
2022/07/01 02:39:18;;;;;;;4.93;4.45;;;;;;;14.90;75.33;100265.59;10141160;29;20103;-78
2022/07/01 02:44:21;;;;;;;6.18;3.75;;;;;;;14.56;75.70;100281.63;10144588;29;20139;-77
2022/07/01 02:49:24;;;;;;;6.38;4.22;;;;;;;14.82;74.99;100284.44;10143994;29;20056;-77
2022/07/01 02:54:29;;;;;;;;;;;;;;;14.68;74.94;100296.63;10142746;29;20044;-78
2022/07/01 02:59:31;;;;;;;4.63;4.20;;;;;;;14.78;74.54;100304.66;10140369;29;19929;-78
2022/07/01 03:04:34;;;;;;;5.03;3.90;;;;;;;14.99;74.04;100323.31;10141487;29;20062;-78
2022/07/01 03:09:39;;;;;;;4.28;3.03;;;;;;;14.45;75.36;100344.84;10123775;29;20059;-78
2022/07/01 03:14:42;;;;;;;4.88;4.15;;;;;;;14.45;75.80;100333.19;10142427;29;20667;-79
2022/07/01 03:19:45;;;;;;;4.55;3.40;;;;;;;14.55;75.84;100348.34;10135433;29;20040;-77
2022/07/01 03:24:49;;;;;;;6.07;4.57;;;;;;;14.67;75.64;100348.13;10142299;29;20119;-78
2022/07/01 03:29:52;;;;;;;9.27;5.75;;;;;;;13.96;79.85;100349.59;10138106;29;20629;-76
2022/07/01 03:34:55;;;;;;;10.07;6.63;;;;;;;13.99;80.68;100349.31;10118948;29;20123;-78
2022/07/01 03:39:59;;;;;;;9.05;6.47;;;;;;;14.02;81.10;100335.50;10142430;29;20060;-78
2022/07/01 03:45:02;;;;;;;9.93;6.82;;;;;;;14.08;81.21;100336.75;10140697;29;20052;-77
2022/07/01 03:50:06;;;;;;;9.23;8.15;;;;;;;14.11;80.69;100353.50;10141340;29;20050;-77
2022/07/01 03:55:11;;;;;;;10.23;7.68;;;;;;;14.51;79.93;100352.38;10138795;29;20059;-76
2022/07/01 04:00:14;;;;;;;10.30;8.10;;;;;;;14.41;79.66;100359.69;10138980;29;20063;-78
2022/07/01 04:05:21;;;;;;;12.20;8.95;;;;;;;14.56;80.67;100354.59;10149378;29;20069;-78
2022/07/01 04:10:26;;;;;;;11.80;10.02;;;;;;;14.41;80.82;100350.72;10144591;29;20511;-79
2022/07/01 04:15:29;;;;;;;14.80;9.60;;;;;;;14.44;80.16;100361.22;10141979;29;21217;-78
2022/07/01 04:20:32;;;;;;;11.90;10.50;;;;;;;14.32;81.49;100356.00;10137057;29;20152;-78
2022/07/01 04:25:36;;;;;;;15.73;11.40;;;;;;;13.90;82.19;100364.56;10141503;29;20625;-78
2022/07/01 04:30:39;;;;;;;16.40;13.15;;;;;;;14.14;81.29;100368.56;10140449;29;20048;-79
2022/07/01 04:35:41;;;;;;;21.52;16.58;;;;;;;14.22;80.79;100375.94;10139805;29;20056;-79
2022/07/01 04:46:02;;;;;;;21.88;16.60;;;;;;;14.23;80.59;100370.38;10143668;29;20687;-77
2022/07/01 04:51:05;;;;;;;24.08;18.25;;;;;;;14.33;80.71;100346.88;10145238;29;20136;-79
2022/07/01 04:56:10;;;;;;;24.75;19.23;;;;;;;14.38;79.66;100359.94;10119897;29;20047;-78
2022/07/01 05:01:13;;;;;;;25.67;17.80;;;;;;;14.12;79.27;100384.94;10140296;29;20078;-79
2022/07/01 05:06:15;;;;;;;27.52;19.15;;;;;;;14.69;78.33;100362.38;10119517;29;20194;-79
2022/07/01 05:11:20;;;;;;;25.65;17.35;;;;;;;14.50;77.83;100366.88;10135903;29;20060;-80
2022/07/01 05:16:23;;;;;;;20.00;15.35;;;;;;;14.31;78.41;100383.16;10142548;29;20060;-80
2022/07/01 05:26:47;;;;;;;22.90;15.40;;;;;;;14.36;77.49;100395.22;10151008;29;20071;-79
2022/07/01 05:31:51;;;;;;;18.23;15.60;;;;;;;14.36;77.12;100397.91;10137902;29;21800;-80
2022/07/01 05:36:54;;;;;;;19.45;15.52;;;;;;;14.22;77.21;100408.38;10140191;29;20055;-80
2022/07/01 05:41:58;;;;;;;21.45;16.02;;;;;;;14.46;76.67;100416.84;10123416;29;20059;-80
2022/07/01 05:47:01;;;;;;;21.27;14.55;;;;;;;14.45;76.55;100409.72;10141203;29;20056;-80
2022/07/01 05:52:04;;;;;;;20.42;13.90;;;;;;;14.10;76.95;100403.13;10123257;29;20079;-79
2022/07/01 05:57:09;;;;;;;20.98;14.15;;;;;;;14.40;75.40;100403.06;10124206;29;21175;-79
2022/07/01 06:02:13;;;;;;;22.33;13.70;;;;;;;14.37;75.51;100413.16;10145410;29;20052;-79
2022/07/01 06:07:15;;;;;;;16.92;14.60;;;;;;;14.58;74.61;100410.22;10125952;29;21184;-80
2022/07/01 06:12:20;;;;;;;17.48;14.95;;;;;;;14.50;75.15;100411.97;10140945;29;20111;-78
2022/07/01 06:17:22;;;;;;;16.55;13.98;;;;;;;14.99;74.78;100404.44;10149398;29;21201;-79
2022/07/01 06:22:25;;;;;;;21.25;15.07;;;;;;;15.06;74.77;100410.97;10127110;29;20776;-80
2022/07/01 06:27:30;;;;;;;19.30;14.90;;;;;;;15.28;73.56;100420.47;10145152;29;20067;-79
2022/07/01 06:32:32;;;;;;;19.00;15.27;;;;;;;15.09;72.87;100431.44;10144994;29;20446;-80
2022/07/01 06:37:35;;;;;;;19.38;15.13;;;;;;;14.80;74.03;100433.31;10144701;29;20123;-79
2022/07/01 06:42:40;;;;;;;22.40;14.73;;;;;;;14.82;73.20;100427.75;10125922;29;20635;-79
2022/07/01 06:47:43;;;;;;;22.05;16.05;;;;;;;14.97;74.26;100425.38;10146012;29;20154;-78
2022/07/01 06:52:46;;;;;;;22.63;15.07;;;;;;;14.94;73.46;100440.06;10128622;29;20071;-78
2022/07/01 06:57:50;;;;;;;22.75;15.00;;;;;;;14.74;73.62;100441.19;10118828;29;20094;-79
2022/07/01 07:02:53;;;;;;;25.58;17.42;;;;;;;14.80;74.13;100449.53;10145857;29;20145;-79
2022/07/01 07:07:55;;;;;;;29.92;19.88;;;;;;;14.94;73.42;100441.91;10143009;29;20062;-78
2022/07/01 07:13:05;;;;;;;26.25;18.98;;;;;;;15.25;72.50;100451.41;10125145;29;20147;-77
2022/07/01 07:18:08;;;;;;;27.70;17.67;;;;;;;14.60;73.63;100477.66;10147648;29;20044;-79
2022/07/01 07:23:11;;;;;;;29.85;19.98;;;;;;;15.12;71.54;100455.50;10124468;29;20048;-79
2022/07/01 07:28:15;;;;;;;33.65;21.13;;;;;;;14.87;72.43;100465.19;10143975;29;20063;-77
2022/07/01 07:33:18;;;;;;;30.42;21.48;;;;;;;15.16;71.57;100457.72;10124416;29;20508;-78
2022/07/01 07:38:21;;;;;;;30.05;20.80;;;;;;;15.45;69.77;100454.00;10139608;29;20075;-79
2022/07/01 07:43:25;;;;;;;30.63;20.02;;;;;;;16.25;66.73;100460.22;10141784;29;21512;-79
2022/07/01 07:48:29;;;;;;;22.02;15.30;;;;;;;15.09;68.83;100467.47;10142455;29;20051;-79
2022/07/01 07:53:32;;;;;;;23.02;17.90;;;;;;;15.46;68.86;100486.31;10140155;29;20275;-78
2022/07/01 07:58:36;;;;;;;22.42;16.58;;;;;;;16.52;65.34;100494.47;10142542;29;20067;-79
2022/07/01 08:03:39;;;;;;;20.38;14.90;;;;;;;16.56;64.42;100519.41;10144271;29;20502;-77
2022/07/01 08:08:42;;;;;;;20.42;14.98;;;;;;;15.64;67.32;100524.22;10122933;29;21195;-75
2022/07/01 08:13:46;;;;;;;20.05;15.23;;;;;;;15.54;67.75;100534.28;10141239;29;20056;-78
2022/07/01 08:18:49;;;;;;;16.65;12.57;;;;;;;15.95;65.90;100523.00;10140061;29;20044;-78
2022/07/01 08:23:52;;;;;;;15.88;12.48;;;;;;;15.77;65.76;100528.41;10139884;29;20052;-77
2022/07/01 08:28:56;;;;;;;15.88;11.70;;;;;;;15.72;66.23;100564.09;10141492;29;20147;-77
2022/07/01 08:33:59;;;;;;;12.88;10.15;;;;;;;15.78;65.27;100566.19;10140079;29;20150;-78
2022/07/01 08:39:03;;;;;;;13.25;10.07;;;;;;;16.34;63.50;100550.59;10120614;29;20044;-77
2022/07/01 08:44:08;;;;;;;13.77;7.68;;;;;;;15.65;63.21;100577.38;10132670;29;20103;-77
2022/07/01 08:49:12;;;;;;;14.02;9.20;;;;;;;15.70;65.29;100563.38;10135548;29;20075;-77
2022/07/01 08:54:15;;;;;;;12.48;9.57;;;;;;;15.90;64.02;100577.63;10137992;29;20099;-77
2022/07/01 08:59:26;;;;;;;15.75;11.23;;;;;;;16.06;63.81;100583.19;10138285;29;20138;-77
2022/07/01 09:04:29;;;;;;;13.18;10.80;;;;;;;15.43;66.13;100581.34;10136716;29;20052;-77
2022/07/01 09:09:36;;;;;;;13.82;9.85;;;;;;;15.02;66.99;100583.50;10137588;29;20048;-77
2022/07/01 09:14:42;;;;;;;13.88;9.50;;;;;;;15.73;65.28;100592.88;10137163;29;20501;-77
2022/07/01 09:19:50;;;;;;;10.77;9.32;;;;;;;16.30;63.61;100592.59;10136017;29;20064;-77
2022/07/01 09:24:52;;;;;;;9.48;7.53;;;;;;;16.50;61.78;100593.25;10110993;29;20092;-77
2022/07/01 09:29:56;;;;;;;10.80;8.20;;;;;;;16.94;60.64;100617.63;10134396;29;20101;-76
2022/07/01 09:34:59;;;;;;;10.82;8.88;;;;;;;16.50;62.68;100625.78;10136887;29;20056;-77
2022/07/01 09:40:03;;;;;;;8.60;7.40;;;;;;;16.27;63.23;100614.59;10136336;29;20398;-77
2022/07/01 09:45:10;;;;;;;9.93;6.72;;;;;;;16.75;59.79;100608.69;10136870;29;20052;-78
2022/07/01 09:50:13;;;;;;;12.85;6.65;;;;;;;17.39;58.98;100611.13;10128483;29;20070;-78
2022/07/01 09:55:16;;;;;;;7.30;5.80;;;;;;;17.60;57.19;100607.94;10128131;29;20087;-77
2022/07/01 10:00:20;;;;;;;8.27;5.68;;;;;;;17.55;56.34;100597.59;10149161;29;20067;-77
2022/07/01 10:05:25;;;;;;;8.38;5.80;;;;;;;17.72;57.52;100573.16;10146085;29;20689;-77
2022/07/01 10:10:45;;;;;;;6.80;5.70;;;;;;;17.87;54.63;100563.38;10126093;29;20088;-78
2022/07/01 10:15:49;;;;;;;7.78;4.13;;;;;;;18.28;54.14;100574.28;10128789;29;20054;-78
2022/07/01 10:20:54;;;;;;;6.60;5.15;;;;;;;18.63;53.19;100564.06;10144225;29;21306;-78
2022/07/01 10:26:04;;;;;;;6.63;5.40;;;;;;;18.61;52.44;100564.22;10143378;29;20130;-77
2022/07/01 10:31:13;;;;;;;10.27;5.82;;;;;;;19.02;51.71;100561.44;10156493;29;20044;-77
2022/07/01 10:36:19;;;;;;;8.02;5.20;;;;;;;18.94;51.44;100572.34;10154976;29;20679;-78
2022/07/01 10:41:26;;;;;;;6.43;5.43;;;;;;;18.46;52.31;100569.53;10146245;29;20139;-78
2022/07/01 10:46:43;;;;;;;5.80;4.18;;;;;;;18.65;51.34;100567.44;10115852;29;20051;-78
2022/07/01 10:51:48;;;;;;;5.40;3.72;;;;;;;19.12;49.10;100566.69;10145731;29;20048;-78
2022/07/01 10:56:51;;;;;;;3.80;3.50;;;;;;;19.92;48.54;100569.19;10141464;29;22048;-78
2022/07/01 11:01:55;;;;;;;3.90;3.45;;;;;;;20.34;47.47;100578.75;10145025;29;20164;-78
2022/07/01 11:06:59;;;;;;;5.43;3.65;;;;;;;20.07;47.81;100571.94;10122059;29;20145;-77
2022/07/01 11:12:02;;;;;;;4.90;3.38;;;;;;;19.16;49.63;100582.47;10148136;29;20112;-77
2022/07/01 11:17:08;;;;;;;6.63;3.42;;;;;;;18.95;49.34;100590.38;10143586;29;20497;-78
2022/07/01 11:22:11;;;;;;;4.70;4.20;;;;;;;18.07;51.52;100610.13;10135761;29;20055;-78
2022/07/01 11:27:14;;;;;;;6.10;3.70;;;;;;;17.98;52.47;100624.72;10141106;29;21429;-77
2022/07/01 11:32:25;;;;;;;3.30;2.30;;;;;;;17.23;51.85;100618.16;10131475;29;20507;-77
2022/07/01 11:42:49;;;;;;;5.43;4.07;;;;;;;17.37;52.78;100583.28;10122242;29;20048;-77
2022/07/01 11:47:54;;;;;;;5.22;4.15;;;;;;;17.87;51.85;100591.38;10140215;29;20048;-78
2022/07/01 11:52:57;;;;;;;7.03;5.25;;;;;;;17.90;53.25;100601.91;10123822;29;20068;-76
2022/07/01 11:58:01;;;;;;;7.50;5.03;;;;;;;19.06;51.25;100606.38;10143021;29;20060;-78
2022/07/01 12:03:07;;;;;;;4.97;4.47;;;;;;;18.33;51.20;100590.94;10141174;29;20051;-77
2022/07/01 12:08:11;;;;;;;8.13;5.78;;;;;;;18.63;51.81;100611.16;10143328;29;20051;-78
2022/07/01 12:13:23;;;;;;;7.55;6.38;;;;;;;18.21;51.93;100604.03;10142012;29;20056;-78
2022/07/01 12:18:27;;;;;;;7.80;6.50;;;;;;;19.30;51.36;100619.03;10139959;29;20056;-78
2022/07/01 12:23:32;;;;;;;9.13;7.22;;;;;;;19.00;50.37;100618.75;10140349;29;20443;-78
2022/07/01 12:28:40;;;;;;;9.02;7.00;;;;;;;18.92;51.62;100635.13;10137028;29;20043;-78
2022/07/01 12:33:52;;;;;;;8.75;7.80;;;;;;;18.61;51.99;100626.81;10139003;29;20119;-79
2022/07/01 12:39:04;;;;;;;11.02;7.28;;;;;;;19.19;50.77;100622.13;10141752;29;20059;-78
2022/07/01 12:44:20;;;;;;;6.82;4.30;;;;;;;19.04;48.44;100613.00;10140310;29;20040;-78
2022/07/01 12:49:26;;;;;;;7.35;4.30;;;;;;;19.23;48.23;100624.34;10135374;29;20099;-78
2022/07/01 12:54:31;;;;;;;5.28;3.10;;;;;;;20.30;45.08;100604.69;10140341;29;20253;-77
2022/07/01 12:59:33;;;;;;;5.38;3.10;;;;;;;20.59;43.84;100597.63;10121585;29;20119;-78
2022/07/01 13:04:38;;;;;;;4.47;3.00;;;;;;;20.80;44.07;100600.50;10140500;29;20063;-78
2022/07/01 13:09:43;;;;;;;4.55;2.33;;;;;;;21.53;43.50;100598.84;10134073;29;20052;-78
2022/07/01 13:14:47;;;;;;;3.03;1.90;;;;;;;22.69;41.76;100618.78;10139524;29;20399;-78
2022/07/01 13:19:52;;;;;;;2.63;1.95;;;;;;;21.66;42.49;100604.44;10140059;29;20723;-78
2022/07/01 13:24:54;;;;;;;3.17;1.73;;;;;;;22.40;41.47;100603.34;10140126;29;20067;-78
2022/07/01 13:29:58;;;;;;;1.90;1.80;;;;;;;22.04;41.67;100617.09;10139020;29;21211;-78
2022/07/01 13:35:03;;;;;;;2.55;1.85;;;;;;;22.86;40.86;100607.53;10121887;29;20048;-78
2022/07/01 13:40:08;;;;;;;2.60;1.33;;;;;;;22.85;39.86;100611.34;10138851;29;20048;-78
2022/07/01 13:45:11;;;;;;;2.30;1.63;;;;;;;21.18;43.04;100609.50;10134834;29;20170;-78
2022/07/01 13:50:18;;;;;;;1.58;1.48;;;;;;;20.84;43.68;100622.81;10142199;29;20052;-79
2022/07/01 13:55:22;;;;;;;1.40;1.27;;;;;;;20.39;44.18;100624.59;10116179;29;20470;-79
2022/07/01 14:00:25;;;;;;;4.45;1.75;;;;;;;20.78;43.84;100624.41;10140926;29;20084;-78
2022/07/01 14:05:29;;;;;;;2.15;1.30;;;;;;;20.81;43.03;100626.75;10139902;29;20056;-78
2022/07/01 14:10:34;;;;;;;2.28;1.50;;;;;;;21.13;42.65;100625.59;10137988;29;20534;-78
2022/07/01 14:15:37;;;;;;;1.63;1.40;;;;;;;21.92;41.74;100630.44;10140679;29;20048;-78
2022/07/01 14:20:42;;;;;;;4.63;1.83;;;;;;;21.85;41.29;100633.06;10138863;29;20052;-79
2022/07/01 14:25:47;;;;;;;2.00;1.90;;;;;;;20.37;43.28;100630.22;10139826;29;20051;-79
2022/07/01 14:30:50;;;;;;;1.75;1.45;;;;;;;20.45;43.63;100630.16;10136496;29;20555;-77
2022/07/01 14:35:55;;;;;;;2.05;1.85;;;;;;;21.35;43.46;100633.91;10142252;29;20091;-76
2022/07/01 14:40:58;;;;;;;3.83;1.80;;;;;;;22.54;40.85;100631.69;10143338;29;20055;-78
2022/07/01 14:46:03;;;;;;;3.05;1.50;;;;;;;23.16;37.95;100636.41;10142012;29;20499;-77
2022/07/01 14:51:08;;;;;;;3.08;1.38;;;;;;;23.73;38.06;100628.91;10140984;29;20059;-78
2022/07/01 14:56:11;;;;;;;3.60;1.33;;;;;;;21.45;41.04;100634.47;10144868;29;20142;-78
2022/07/01 15:01:15;;;;;;;4.20;1.75;;;;;;;20.33;43.80;100631.63;10142939;29;20144;-79
2022/07/01 15:06:19;;;;;;;2.28;2.08;;;;;;;19.86;45.25;100638.91;10142768;29;20119;-77
2022/07/01 15:11:22;;;;;;;1.90;1.70;;;;;;;20.90;43.01;100636.59;10143795;29;20063;-78
2022/07/01 15:23:13;;;;;;;2.50;1.35;;;;;;;22.99;37.62;100626.81;10144606;29;20044;-77
2022/07/01 15:28:16;;;;;;;1.88;0.93;;;;;;;22.69;38.25;100626.16;10148552;29;20048;-77
2022/07/01 15:33:21;;;;;;;2.67;0.85;;;;;;;22.81;37.58;100631.94;10155662;29;20151;-77
2022/07/01 15:38:25;;;;;;;0.93;0.60;;;;;;;21.30;38.56;100639.06;10147232;29;20766;-77
2022/07/01 15:43:28;;;;;;;2.30;0.70;;;;;;;21.29;38.31;100637.38;10139192;29;20071;-77
2022/07/01 15:48:31;;;;;;;1.25;0.90;;;;;;;22.92;36.24;100640.44;10144308;29;20052;-78
2022/07/01 15:53:35;;;;;;;1.48;0.70;;;;;;;24.31;34.89;100644.91;10144124;29;20574;-78
2022/07/01 15:58:38;;;;;;;0.90;0.60;;;;;;;22.92;35.66;100643.16;10144409;29;20600;-76
2022/07/01 16:03:45;;;;;;;1.73;0.60;;;;;;;22.72;36.15;100645.75;10139791;29;20115;-77
2022/07/01 16:09:00;;;;;;;2.75;0.50;;;;;;;23.86;35.23;100653.69;10144607;29;20430;-77
2022/07/01 16:14:06;;;;;;;1.83;0.50;;;;;;;23.49;35.96;100659.59;10106171;29;20123;-77
2022/07/01 16:19:10;;;;;;;2.50;0.80;;;;;;;23.51;36.59;100655.59;10142854;29;20048;-78
2022/07/01 16:24:15;;;;;;;0.68;0.50;;;;;;;23.26;36.50;100657.13;10138318;29;20203;-78
2022/07/01 16:29:19;;;;;;;3.72;0.88;;;;;;;23.50;36.34;100670.34;10136476;29;20062;-78
2022/07/01 16:34:22;;;;;;;0.88;0.70;;;;;;;21.53;38.34;100674.47;10143010;29;20080;-78
2022/07/01 16:39:26;;;;;;;1.20;0.73;;;;;;;23.01;36.45;100671.28;10139522;29;20115;-78
2022/07/01 16:44:43;;;;;;;4.88;1.67;;;;;;;25.79;32.45;100663.84;10142335;29;20482;-78
2022/07/01 16:49:49;;;;;;;1.55;0.70;;;;;;;29.11;28.72;100648.31;10139378;29;20055;-78
2022/07/01 16:54:59;;;;;;;2.00;0.57;;;;;;;25.45;32.62;100663.06;10140437;29;20127;-78
2022/07/01 17:00:03;;;;;;;1.23;0.50;;;;;;;23.40;34.88;100664.41;10139720;29;20044;-78
2022/07/01 17:05:07;;;;;;;1.30;0.75;;;;;;;26.45;31.37;100668.97;10138360;29;20044;-78
2022/07/01 17:10:13;;;;;;;1.50;0.77;;;;;;;29.06;28.53;100673.94;10138337;29;20055;-78
2022/07/01 17:15:17;;;;;;;2.10;0.65;;;;;;;23.68;35.61;100689.00;10135322;29;20052;-78
2022/07/01 17:20:20;;;;;;;2.28;0.85;;;;;;;21.61;39.50;100678.00;10137568;29;20194;-78
2022/07/01 17:25:29;;;;;;;1.88;0.75;;;;;;;29.02;29.68;100680.13;10138969;29;20246;-78
2022/07/01 17:30:35;;;;;;;1.42;0.75;;;;;;;31.50;26.05;100672.44;10138069;29;20142;-77
2022/07/01 17:35:41;;;;;;;0.80;0.75;;;;;;;30.02;26.95;100670.75;10136411;29;20088;-78
2022/07/01 17:40:48;;;;;;;0.88;0.40;;;;;;;28.93;27.72;100682.41;10133283;29;20056;-77
2022/07/01 17:45:52;;;;;;;2.20;0.60;;;;;;;28.98;27.55;100687.25;10118957;29;20044;-78
2022/07/01 17:50:55;;;;;;;0.40;0.40;;;;;;;29.97;26.71;100677.03;10134043;29;20067;-78
2022/07/01 17:56:02;;;;;;;2.10;0.70;;;;;;;25.32;31.67;100679.63;10116715;29;20135;-77
2022/07/01 18:01:06;;;;;;;3.15;0.80;;;;;;;23.06;35.08;100689.84;10107078;29;20056;-77
2022/07/01 18:06:09;;;;;;;1.27;0.50;;;;;;;21.80;35.30;100694.84;10139408;29;21309;-78
2022/07/01 18:11:18;;;;;;;1.35;0.63;;;;;;;21.33;37.75;100696.91;10146070;29;20267;-78
2022/07/01 18:16:29;;;;;;;1.88;0.40;;;;;;;20.75;38.15;100690.28;10149071;29;20060;-78
2022/07/01 18:21:33;;;;;;;0.85;0.52;;;;;;;20.61;38.81;100700.13;10145518;29;20770;-78
2022/07/01 18:26:39;;;;;;;0.45;0.40;;;;;;;20.27;39.18;100700.53;10128349;29;20059;-78
2022/07/01 18:31:44;;;;;;;2.38;0.68;;;;;;;19.89;39.08;100709.41;10144275;29;21166;-77
2022/07/01 18:36:51;;;;;;;1.75;0.50;;;;;;;20.30;39.29;100719.25;10146089;29;20051;-78
2022/07/01 18:41:55;;;;;;;1.60;0.70;;;;;;;20.06;39.11;100718.34;10125921;29;20052;-78
2022/07/01 18:47:02;;;;;;;1.00;0.47;;;;;;;20.04;40.25;100733.19;10110186;29;20044;-78
2022/07/01 18:52:06;;;;;;;1.17;0.50;;;;;;;19.90;40.62;100732.91;10144281;29;20185;-78
2022/07/01 18:57:10;;;;;;;2.28;0.70;;;;;;;19.62;40.95;100742.56;10145226;29;20087;-79
2022/07/01 19:02:15;;;;;;;1.02;0.40;;;;;;;19.77;41.57;100745.41;10142367;29;20052;-80
2022/07/01 19:07:18;;;;;;;1.50;0.50;;;;;;;19.77;42.49;100750.84;10145109;29;20056;-79
2022/07/01 19:12:23;;;;;;;1.75;0.63;;;;;;;19.58;43.36;100771.19;10143358;29;20052;-80
2022/07/01 19:17:25;;;;;;;1.30;0.50;;;;;;;19.40;42.90;100771.38;10131933;29;20059;-80
2022/07/01 19:22:28;;;;;;;1.02;0.50;;;;;;;19.18;42.53;100778.38;10146466;29;20060;-79
2022/07/01 19:27:33;;;;;;;0.52;0.35;;;;;;;19.17;43.10;100790.28;10146591;29;20051;-80
2022/07/01 19:32:36;;;;;;;1.77;0.60;;;;;;;18.92;43.09;100801.16;10127544;29;20066;-80
2022/07/01 19:37:39;;;;;;;1.30;0.57;;;;;;;18.80;45.00;100805.25;10146922;29;20056;-79
2022/07/01 19:42:43;;;;;;;2.70;0.70;;;;;;;18.70;44.64;100801.78;10156158;29;20150;-80
2022/07/01 19:47:46;;;;;;;1.20;0.68;;;;;;;18.54;44.61;100813.47;10149865;29;20056;-80
2022/07/01 19:52:49;;;;;;;0.88;0.30;;;;;;;18.51;46.38;100831.00;10147720;29;20048;-80
2022/07/01 19:57:53;;;;;;;3.17;0.60;;;;;;;18.34;46.38;100827.34;10133409;29;20431;-79
2022/07/01 20:02:56;;;;;;;3.08;0.80;;;;;;;18.22;46.28;100833.28;10147667;29;20574;-80
2022/07/01 20:07:59;;;;;;;1.85;0.70;;;;;;;18.17;46.38;100835.63;10134618;29;20406;-78
2022/07/01 20:13:03;;;;;;;1.50;0.50;;;;;;;18.10;46.16;100843.56;10152068;29;20082;-80
2022/07/01 20:18:06;;;;;;;2.72;0.70;;;;;;;17.97;46.26;100852.19;10149033;29;20056;-80
2022/07/01 20:23:10;;;;;;;1.85;0.70;;;;;;;17.77;46.96;100864.25;10134148;29;20044;-79
2022/07/01 20:28:15;;;;;;;1.45;0.50;;;;;;;17.67;47.05;100870.66;10167514;29;20135;-81
2022/07/01 20:33:18;;;;;;;1.92;0.93;;;;;;;17.58;47.80;100881.59;10148220;29;20052;-80
2022/07/01 20:38:21;;;;;;;2.92;0.90;;;;;;;17.54;47.37;100893.81;10130160;29;20052;-79
2022/07/01 20:43:25;;;;;;;1.75;0.85;;;;;;;17.53;47.48;100900.25;10156737;29;20056;-78
2022/07/01 20:48:28;;;;;;;1.92;0.70;;;;;;;17.38;47.52;100898.06;10152855;29;20080;-80
2022/07/01 20:53:31;;;;;;;1.92;0.80;;;;;;;17.15;49.00;100905.00;10112989;29;20060;-81
2022/07/01 20:58:36;;;;;;;1.48;0.73;;;;;;;17.11;48.56;100917.13;10125811;29;20056;-81
2022/07/01 21:03:40;;;;;;;2.47;0.90;;;;;;;17.10;48.98;100924.41;10122497;29;20044;-79
2022/07/01 21:08:43;;;;;;;2.50;1.30;;;;;;;17.00;49.09;100935.38;10148175;29;20159;-81
2022/07/01 21:13:48;;;;;;;1.77;0.80;;;;;;;16.75;50.24;100933.34;10137159;29;20044;-81
2022/07/01 21:18:51;;;;;;;3.78;0.80;;;;;;;16.71;50.18;100943.66;10156816;29;20075;-80
2022/07/01 21:23:53;;;;;;;3.10;0.85;;;;;;;16.72;50.05;100958.06;10144316;29;20485;-78
2022/07/01 21:28:58;;;;;;;2.42;1.20;;;;;;;16.75;50.38;100960.47;10142676;29;20085;-78
2022/07/01 21:34:01;;;;;;;6.05;1.15;;;;;;;16.84;50.44;100961.44;10143547;29;20040;-80
2022/07/01 21:39:04;;;;;;;1.35;0.93;;;;;;;16.81;50.32;100958.03;10123702;29;20055;-80
2022/07/01 21:44:08;;;;;;;2.25;0.98;;;;;;;16.73;50.05;100963.38;10144301;29;20506;-80
2022/07/01 21:49:15;;;;;;;1.38;1.00;;;;;;;16.64;50.74;100979.66;10150993;29;20064;-80
2022/07/01 21:54:28;;;;;;;1.83;0.73;;;;;;;16.46;51.39;100979.63;10150780;29;20044;-80
2022/07/01 21:59:34;;;;;;;2.88;0.80;;;;;;;16.22;51.71;100966.53;10149155;29;20143;-80
2022/07/01 22:04:39;;;;;;;2.08;0.75;;;;;;;16.15;52.17;100982.50;10148841;29;20059;-80
2022/07/01 22:09:43;;;;;;;1.20;0.95;;;;;;;16.08;52.94;100992.25;10147271;29;20059;-80
2022/07/01 22:14:53;;;;;;;1.60;0.75;;;;;;;15.86;53.46;101001.53;10147509;29;21213;-80
2022/07/01 22:19:57;;;;;;;2.72;1.00;;;;;;;15.75;53.73;100998.97;10145446;29;20510;-80
2022/07/01 22:25:01;;;;;;;2.72;1.02;;;;;;;15.70;54.15;101004.81;10129327;29;20056;-80
2022/07/01 22:30:07;;;;;;;2.58;0.90;;;;;;;15.68;54.16;101007.66;10146058;29;20059;-80
2022/07/01 22:35:11;;;;;;;2.67;0.75;;;;;;;15.61;54.59;101002.97;10141543;29;20583;-80
2022/07/01 22:40:17;;;;;;;2.58;1.10;;;;;;;15.46;55.24;101006.09;10128895;29;21302;-80
2022/07/01 22:45:22;;;;;;;2.42;1.23;;;;;;;15.49;54.95;101010.34;10146724;29;20056;-79
2022/07/01 22:50:32;;;;;;;2.08;1.05;;;;;;;15.53;55.17;101009.09;10143436;29;20187;-80
2022/07/01 22:55:40;;;;;;;4.00;1.40;;;;;;;15.43;55.50;101009.06;10141493;29;20059;-80
2022/07/01 23:00:50;;;;;;;3.00;1.50;;;;;;;15.39;55.55;101007.66;10145812;29;20051;-80
2022/07/01 23:05:57;;;;;;;1.80;1.20;;;;;;;15.46;55.27;101000.66;10146404;29;20052;-80
2022/07/01 23:11:04;;;;;;;1.80;1.20;;;;;;;15.39;55.75;100998.69;10140750;29;20056;-79
2022/07/01 23:16:28;;;;;;;3.03;1.40;;;;;;;15.54;56.04;101013.50;10143229;29;20056;-79
2022/07/01 23:21:31;;;;;;;2.40;1.23;;;;;;;15.58;55.86;101017.66;10141967;29;20437;-79
2022/07/01 23:26:36;;;;;;;4.13;1.35;;;;;;;15.52;55.83;101004.66;10143479;29;20080;-79
2022/07/01 23:31:43;;;;;;;3.65;2.15;;;;;;;15.28;56.62;101005.06;10141850;29;20055;-79
2022/07/01 23:36:47;;;;;;;6.43;2.42;;;;;;;15.21;56.20;101010.16;10113213;29;20663;-78